Time;durP1;ratioP1;P1;durP2;ratioP2;P2;SDS_P1;SDS_P2;PMS_P1;PMS_P2;Temp;Humidity;BMP_temperature;BMP_pressure;BME280_temperature;BME280_humidity;BME280_pressure;Samples;Min_cycle;Max_cycle;Signal;HPM_P1;HPM_P2
2021/12/11 00:00:19;;;;;;;45.72;22.92;;;4.10;99.40;;;;;;4934472;29;20032;-62
2021/12/11 00:02:53;;;;;;;44.58;19.92;;;4.10;99.30;;;;;;4924599;29;20423;-62
2021/12/11 00:05:19;;;;;;;47.30;22.20;;;4.10;99.30;;;;;;4934178;29;20072;-62
2021/12/11 00:07:45;;;;;;;55.55;23.73;;;4.10;99.30;;;;;;4934932;29;20308;-62
2021/12/11 00:10:16;;;;;;;56.35;24.83;;;4.00;99.30;;;;;;4934165;29;20372;-62
2021/12/11 00:12:47;;;;;;;43.83;20.65;;;4.00;99.30;;;;;;4933680;29;20171;-61
2021/12/11 00:15:22;;;;;;;53.75;22.63;;;4.00;99.30;;;;;;4933847;29;20322;-61
2021/12/11 00:17:49;;;;;;;52.80;23.10;;;4.00;99.30;;;;;;4934555;29;20043;-62
2021/12/11 00:20:20;;;;;;;48.17;21.38;;;4.00;99.30;;;;;;4934479;29;20098;-62
2021/12/11 00:22:46;;;;;;;46.97;21.65;;;4.00;99.30;;;;;;4933856;29;20035;-63
2021/12/11 00:25:16;;;;;;;46.13;20.85;;;4.00;99.40;;;;;;4934486;29;20034;-63
2021/12/11 00:27:44;;;;;;;42.53;21.27;;;4.00;99.30;;;;;;4934631;29;20437;-62
2021/12/11 00:30:20;;;;;;;42.17;20.02;;;4.00;99.30;;;;;;4934674;29;20480;-62
2021/12/11 00:32:46;;;;;;;40.03;20.85;;;4.00;99.20;;;;;;4934741;29;20036;-63
2021/12/11 00:35:20;;;;;;;40.53;20.60;;;4.10;99.30;;;;;;4934525;29;20032;-62
2021/12/11 00:37:46;;;;;;;;;;;4.00;99.20;;;;;;4934421;29;20040;-62
2021/12/11 00:40:20;;;;;;;38.80;18.85;;;4.00;99.20;;;;;;4934287;29;19914;-62
2021/12/11 00:42:51;;;;;;;43.42;21.45;;;4.00;99.20;;;;;;4930431;29;20032;-62
2021/12/11 00:45:22;;;;;;;44.60;20.00;;;4.10;99.30;;;;;;4935591;29;20039;-62
2021/12/11 00:47:51;;;;;;;39.47;19.65;;;4.00;99.20;;;;;;4933844;29;20044;-62
2021/12/11 00:50:19;;;;;;;47.00;20.75;;;4.00;99.20;;;;;;4934164;29;20036;-62
2021/12/11 00:52:50;;;;;;;45.25;21.45;;;4.00;99.20;;;;;;4933590;29;20055;-61
2021/12/11 00:55:30;;;;;;;51.20;21.13;;;4.00;99.20;;;;;;4932813;28;20039;-61
2021/12/11 00:58:17;;;;;;;46.90;20.65;;;4.00;99.20;;;;;;4934690;29;20425;-62
2021/12/11 01:00:48;;;;;;;42.67;20.65;;;4.00;99.20;;;;;;4947924;28;20103;-61
2021/12/11 01:03:19;;;;;;;49.92;20.50;;;4.00;99.20;;;;;;4945115;29;20063;-61
2021/12/11 01:05:50;;;;;;;48.13;21.05;;;4.00;99.30;;;;;;4933668;29;20076;-61
2021/12/11 01:08:31;;;;;;;47.80;22.02;;;4.10;99.30;;;;;;4929969;29;20460;-61
2021/12/11 01:11:11;;;;;;;50.25;23.73;;;4.10;99.30;;;;;;4930368;29;20118;-61
2021/12/11 01:13:52;;;;;;;40.75;20.88;;;4.10;99.20;;;;;;4915599;29;20036;-61
2021/12/11 01:16:21;;;;;;;33.60;17.35;;;4.20;99.20;;;;;;4931690;29;20032;-62
2021/12/11 01:18:50;;;;;;;40.42;19.35;;;4.30;99.20;;;;;;4934008;29;20130;-62
2021/12/11 01:21:43;;;;;;;35.13;17.60;;;4.30;99.10;;;;;;4933605;29;20035;-62
2021/12/11 01:24:27;;;;;;;34.08;17.67;;;4.30;99.00;;;;;;4933957;29;20027;-62
2021/12/11 01:26:54;;;;;;;35.87;18.23;;;4.30;98.90;;;;;;4931064;29;20425;-62
2021/12/11 01:29:21;;;;;;;43.55;20.85;;;4.40;98.90;;;;;;4933432;29;20051;-62
2021/12/11 01:31:48;;;;;;;38.78;18.33;;;4.40;98.80;;;;;;4933483;29;20032;-61
2021/12/11 01:34:14;;;;;;;34.78;19.00;;;4.40;98.70;;;;;;4933985;29;20047;-61
2021/12/11 01:36:40;;;;;;;35.15;17.55;;;4.30;98.60;;;;;;4933120;29;20035;-61
2021/12/11 01:39:21;;;;;;;33.70;17.30;;;4.30;98.60;;;;;;4933274;29;20090;-61
2021/12/11 01:41:48;;;;;;;37.03;18.60;;;4.30;98.60;;;;;;4933726;29;20028;-61
2021/12/11 01:44:18;;;;;;;38.10;19.65;;;4.30;98.50;;;;;;4933783;29;20035;-61
2021/12/11 01:46:44;;;;;;;38.65;18.70;;;4.30;98.50;;;;;;4936136;29;20447;-61
2021/12/11 01:49:17;;;;;;;36.22;19.33;;;4.20;98.50;;;;;;4932897;29;20035;-61
2021/12/11 01:51:52;;;;;;;35.20;17.75;;;4.20;98.50;;;;;;4932452;29;20055;-61
2021/12/11 01:54:24;;;;;;;38.60;19.63;;;4.10;98.50;;;;;;4932380;29;20028;-61
2021/12/11 01:56:58;;;;;;;36.47;18.10;;;4.20;98.50;;;;;;4932357;29;20042;-61
2021/12/11 01:59:29;;;;;;;36.88;18.98;;;4.20;98.50;;;;;;4932710;29;20040;-61
2021/12/11 02:02:10;;;;;;;32.05;16.65;;;4.20;98.50;;;;;;4933377;29;20032;-61
2021/12/11 02:04:40;;;;;;;33.30;17.10;;;4.20;98.40;;;;;;4933822;29;20122;-62
2021/12/11 02:07:10;;;;;;;33.22;17.17;;;4.30;98.40;;;;;;4932703;29;20036;-62
2021/12/11 02:09:40;;;;;;;31.95;16.92;;;4.20;98.40;;;;;;4933212;29;20392;-62
2021/12/11 02:12:14;;;;;;;34.75;18.40;;;4.10;98.40;;;;;;4932203;29;20035;-62
2021/12/11 02:14:46;;;;;;;36.22;17.90;;;4.20;98.40;;;;;;4933834;29;20039;-62
2021/12/11 02:17:24;;;;;;;34.15;18.60;;;4.20;98.40;;;;;;4931170;29;20048;-62
2021/12/11 02:19:50;;;;;;;36.38;19.60;;;4.20;98.40;;;;;;4932683;29;20496;-62
2021/12/11 02:22:20;;;;;;;34.15;18.77;;;4.30;98.40;;;;;;4933515;29;20031;-62
2021/12/11 02:24:52;;;;;;;35.20;19.35;;;4.30;98.40;;;;;;4937155;29;20119;-62
2021/12/11 02:27:25;;;;;;;37.30;19.83;;;4.20;98.30;;;;;;4932993;29;20087;-62
2021/12/11 02:30:04;;;;;;;34.08;17.98;;;4.20;98.30;;;;;;4933170;29;20035;-62
2021/12/11 02:32:42;;;;;;;33.72;17.20;;;4.30;98.40;;;;;;4931696;29;20048;-62
2021/12/11 02:35:16;;;;;;;33.30;18.17;;;4.30;98.30;;;;;;4933248;29;20035;-62
2021/12/11 02:38:27;;;;;;;37.08;18.42;;;4.30;98.30;;;;;;4933460;29;20091;-62
2021/12/11 02:41:15;;;;;;;36.08;18.20;;;4.20;98.20;;;;;;4917085;29;20054;-63
2021/12/11 02:43:48;;;;;;;36.90;18.23;;;4.10;98.20;;;;;;4937337;29;20039;-63
2021/12/11 02:46:24;;;;;;;37.42;19.77;;;4.10;98.30;;;;;;4935649;29;20050;-63
2021/12/11 02:49:01;;;;;;;38.55;20.65;;;4.10;98.30;;;;;;4936742;29;20051;-63
2021/12/11 02:51:33;;;;;;;39.80;19.13;;;4.00;98.30;;;;;;4936077;29;20372;-63
2021/12/11 02:54:05;;;;;;;43.55;19.95;;;4.00;98.40;;;;;;4935962;29;20035;-63
2021/12/11 02:56:34;;;;;;;45.80;20.70;;;4.00;98.40;;;;;;4940829;28;20027;-63
2021/12/11 02:59:07;;;;;;;35.25;18.27;;;3.90;98.40;;;;;;4935940;29;20047;-62
2021/12/11 03:01:39;;;;;;;37.03;19.20;;;3.90;98.40;;;;;;4935519;28;20031;-63
2021/12/11 03:04:18;;;;;;;43.28;20.52;;;3.90;98.50;;;;;;4936771;29;20031;-63
2021/12/11 03:06:46;;;;;;;42.97;19.85;;;3.90;98.50;;;;;;4945495;28;20036;-63
2021/12/11 03:09:17;;;;;;;42.10;20.00;;;3.90;98.50;;;;;;4936011;29;20028;-62
2021/12/11 03:11:43;;;;;;;42.67;18.88;;;3.90;98.60;;;;;;4933485;29;20044;-63
2021/12/11 03:14:14;;;;;;;43.72;21.33;;;3.90;98.50;;;;;;4936211;29;20039;-62
2021/12/11 03:16:44;;;;;;;36.58;17.98;;;4.00;98.60;;;;;;4935564;29;20395;-63
2021/12/11 03:19:13;;;;;;;37.03;19.15;;;4.00;98.50;;;;;;4935764;29;20372;-63
2021/12/11 03:21:39;;;;;;;43.00;19.83;;;4.10;98.50;;;;;;4935389;29;20047;-63
2021/12/11 03:24:06;;;;;;;43.60;20.45;;;4.10;98.50;;;;;;4936507;29;20036;-62
2021/12/11 03:26:32;;;;;;;45.97;21.73;;;4.10;98.50;;;;;;4935605;29;20036;-62
2021/12/11 03:28:58;;;;;;;46.58;21.67;;;4.20;98.40;;;;;;4935337;29;20046;-62
2021/12/11 03:31:25;;;;;;;40.25;20.02;;;4.20;98.40;;;;;;4935254;29;20150;-62
2021/12/11 03:33:55;;;;;;;42.30;21.55;;;4.20;98.30;;;;;;4935600;29;20036;-61
2021/12/11 03:36:22;;;;;;;43.78;20.50;;;4.20;98.30;;;;;;4935549;29;20542;-62
2021/12/11 03:38:53;;;;;;;40.35;20.17;;;4.20;98.30;;;;;;4936474;29;20063;-62
2021/12/11 03:41:20;;;;;;;51.28;23.42;;;4.20;98.30;;;;;;4935257;29;20032;-62
2021/12/11 03:43:46;;;;;;;45.78;20.75;;;4.20;98.30;;;;;;4935914;29;20063;-63
2021/12/11 03:46:13;;;;;;;46.67;21.52;;;4.20;98.30;;;;;;4934688;29;20027;-63
2021/12/11 03:48:53;;;;;;;46.22;20.95;;;4.20;98.30;;;;;;4934647;29;20043;-62
2021/12/11 03:51:24;;;;;;;42.10;20.75;;;4.20;98.30;;;;;;4933541;29;20487;-62
2021/12/11 03:53:50;;;;;;;46.42;21.70;;;4.20;98.30;;;;;;4917147;29;20480;-62
2021/12/11 03:56:17;;;;;;;44.08;21.45;;;4.30;98.30;;;;;;4932551;29;20408;-61
2021/12/11 03:58:49;;;;;;;48.17;22.58;;;4.30;98.30;;;;;;4935908;29;20118;-62
2021/12/11 04:01:24;;;;;;;50.05;22.73;;;4.30;98.20;;;;;;4934521;29;20409;-62
2021/12/11 04:03:54;;;;;;;50.33;22.45;;;4.20;98.20;;;;;;4934258;29;20522;-62
2021/12/11 04:06:21;;;;;;;45.30;21.98;;;4.20;98.30;;;;;;4934654;29;20046;-62
2021/12/11 04:08:47;;;;;;;50.15;23.08;;;4.20;98.30;;;;;;4935216;29;20575;-63
2021/12/11 04:11:20;;;;;;;46.25;21.75;;;4.10;98.40;;;;;;4934055;29;20498;-62
2021/12/11 04:13:48;;;;;;;49.15;22.40;;;4.20;98.40;;;;;;4935450;29;20106;-63
2021/12/11 04:16:14;;;;;;;46.30;22.00;;;4.10;98.40;;;;;;4934657;29;20043;-61
2021/12/11 04:18:40;;;;;;;50.67;22.55;;;4.10;98.50;;;;;;4949103;29;20101;-62
2021/12/11 04:21:06;;;;;;;50.20;23.10;;;4.10;98.50;;;;;;4934328;29;20032;-62
2021/12/11 04:23:32;;;;;;;51.47;23.45;;;4.10;98.60;;;;;;4934796;29;20353;-62
2021/12/11 04:25:59;;;;;;;53.95;25.52;;;4.10;98.60;;;;;;4934348;29;20036;-62
2021/12/11 04:28:29;;;;;;;45.60;22.50;;;4.10;98.50;;;;;;4934852;29;20484;-62
2021/12/11 04:31:03;;;;;;;52.33;23.77;;;4.20;98.60;;;;;;4934818;29;20024;-62
2021/12/11 04:33:31;;;;;;;50.78;23.80;;;4.10;98.50;;;;;;4934298;29;20057;-62
2021/12/11 04:35:57;;;;;;;55.40;26.00;;;4.20;98.60;;;;;;4934640;29;20039;-62
2021/12/11 04:38:22;;;;;;;49.75;24.35;;;4.20;98.60;;;;;;4935180;29;20039;-62
2021/12/11 04:40:53;;;;;;;55.95;26.08;;;4.20;98.60;;;;;;4934612;29;20027;-62
2021/12/11 04:43:22;;;;;;;54.53;25.98;;;4.20;98.60;;;;;;4932967;29;20036;-62
2021/12/11 04:46:00;;;;;;;56.53;27.27;;;4.10;98.60;;;;;;4937795;29;20035;-62
2021/12/11 04:48:46;;;;;;;58.15;26.48;;;4.10;98.60;;;;;;4934155;29;20059;-61
2021/12/11 04:53:54;;;;;;;54.90;25.65;;;4.20;98.70;;;;;;4933808;29;20042;-62
2021/12/11 04:59:26;;;;;;;58.88;25.15;;;4.10;98.70;;;;;;4934809;29;20043;-62
2021/12/11 05:05:11;;;;;;;56.53;27.15;;;4.10;98.80;;;;;;4892373;29;20040;-62
2021/12/11 05:07:45;;;;;;;51.70;26.40;;;4.10;98.80;;;;;;4924155;29;20044;-62
2021/12/11 05:10:43;;;;;;;55.10;26.73;;;4.20;98.80;;;;;;4932442;29;20039;-62
2021/12/11 05:13:09;;;;;;;58.22;25.75;;;4.20;98.80;;;;;;4934356;29;20099;-62
2021/12/11 05:15:41;;;;;;;56.67;28.63;;;4.20;98.80;;;;;;4932137;29;20443;-63
2021/12/11 05:18:11;;;;;;;58.60;26.70;;;4.20;98.80;;;;;;4933861;29;20071;-63
2021/12/11 05:20:38;;;;;;;59.22;28.17;;;4.20;98.80;;;;;;4920723;29;20078;-63
2021/12/11 05:23:04;;;;;;;61.80;29.30;;;4.20;98.80;;;;;;4948890;29;20042;-64
2021/12/11 05:25:30;;;;;;;61.85;28.38;;;4.20;98.80;;;;;;4937623;29;20487;-63
2021/12/11 05:27:56;;;;;;;64.22;30.25;;;4.20;98.80;;;;;;4943105;29;20438;-63
2021/12/11 05:30:29;;;;;;;60.45;27.73;;;4.30;98.90;;;;;;4940973;29;20032;-63
2021/12/11 05:32:58;;;;;;;59.90;30.38;;;4.30;98.80;;;;;;4941992;29;20546;-63
2021/12/11 05:35:25;;;;;;;62.03;27.55;;;4.20;98.80;;;;;;4934061;29;20627;-62
2021/12/11 05:37:51;;;;;;;56.28;26.80;;;4.30;98.90;;;;;;4939713;29;20079;-62
2021/12/11 05:40:20;;;;;;;61.95;27.33;;;4.30;98.90;;;;;;4941748;29;20031;-62
2021/12/11 05:42:47;;;;;;;63.58;26.58;;;4.20;98.90;;;;;;4938785;29;20028;-62
2021/12/11 05:45:12;;;;;;;59.70;26.05;;;4.20;98.90;;;;;;4950851;28;20454;-62
2021/12/11 05:47:38;;;;;;;60.28;26.30;;;4.20;98.90;;;;;;4934363;28;20031;-62
2021/12/11 05:50:08;;;;;;;62.33;27.25;;;4.20;98.90;;;;;;4932791;29;20031;-62
2021/12/11 05:52:33;;;;;;;53.65;24.88;;;4.20;98.90;;;;;;4933533;29;20064;-63
2021/12/11 05:54:59;;;;;;;58.28;25.30;;;4.20;98.90;;;;;;4932285;29;20059;-63
2021/12/11 05:57:26;;;;;;;56.10;22.80;;;4.20;98.90;;;;;;4933723;29;20119;-62
2021/12/11 05:59:52;;;;;;;55.38;26.10;;;4.10;98.90;;;;;;4933480;29;20059;-62
2021/12/11 06:02:22;;;;;;;56.42;23.63;;;4.10;98.90;;;;;;4930655;29;20028;-62
2021/12/11 06:04:50;;;;;;;53.40;24.58;;;4.10;98.90;;;;;;4924415;29;20535;-61
2021/12/11 06:07:18;;;;;;;52.58;24.20;;;4.10;98.90;;;;;;4931948;29;20539;-62
2021/12/11 06:09:48;;;;;;;55.53;23.45;;;4.10;98.90;;;;;;4933181;29;20036;-62
2021/12/11 06:12:16;;;;;;;57.20;23.80;;;4.10;98.90;;;;;;4932158;28;20031;-61
2021/12/11 06:14:44;;;;;;;60.05;23.95;;;4.10;98.90;;;;;;4933878;29;20040;-62
2021/12/11 06:17:12;;;;;;;60.25;23.92;;;4.10;98.90;;;;;;4937000;29;20090;-62
2021/12/11 06:19:41;;;;;;;54.67;21.88;;;4.10;98.90;;;;;;4936832;29;20046;-62
2021/12/11 06:22:07;;;;;;;54.92;22.15;;;4.00;98.90;;;;;;4937153;29;20032;-62
2021/12/11 06:24:33;;;;;;;52.20;23.25;;;4.00;98.90;;;;;;4936830;29;20050;-62
2021/12/11 06:26:59;;;;;;;53.75;22.67;;;4.10;98.90;;;;;;4936628;29;20043;-62
2021/12/11 06:29:26;;;;;;;59.28;23.13;;;4.00;98.90;;;;;;4937651;29;20031;-62
2021/12/11 06:31:52;;;;;;;60.25;22.95;;;4.00;98.90;;;;;;4937262;29;20036;-62
2021/12/11 06:34:18;;;;;;;60.35;23.60;;;4.00;98.90;;;;;;4936425;29;20562;-62
2021/12/11 06:36:45;;;;;;;59.72;23.02;;;4.00;99.00;;;;;;4934656;29;20071;-62
2021/12/11 06:39:15;;;;;;;56.00;21.90;;;4.00;99.00;;;;;;4936513;29;20044;-62
2021/12/11 06:41:43;;;;;;;58.85;23.27;;;4.00;99.00;;;;;;4935693;29;20107;-62
2021/12/11 06:44:09;;;;;;;59.00;23.02;;;4.00;99.00;;;;;;4936759;29;20531;-62
2021/12/11 06:46:36;;;;;;;59.88;23.67;;;4.00;99.00;;;;;;4940607;29;20480;-62
2021/12/11 06:49:04;;;;;;;61.40;23.25;;;3.90;99.00;;;;;;4935626;29;20039;-62
2021/12/11 06:51:29;;;;;;;60.17;22.00;;;3.90;99.00;;;;;;4936216;29;20051;-62
2021/12/11 06:54:00;;;;;;;60.47;21.50;;;3.90;99.00;;;;;;4933880;29;20043;-61
2021/12/11 06:56:28;;;;;;;57.85;22.63;;;3.90;99.00;;;;;;4929080;29;20712;-61
2021/12/11 06:58:54;;;;;;;67.45;23.10;;;3.80;99.00;;;;;;4936722;29;20343;-60
2021/12/11 07:01:22;;;;;;;52.22;21.33;;;3.90;99.10;;;;;;4932974;29;20432;-60
2021/12/11 07:03:48;;;;;;;56.42;22.58;;;3.80;99.10;;;;;;4933370;29;20386;-60
2021/12/11 07:06:15;;;;;;;54.85;21.17;;;3.80;99.10;;;;;;4931565;29;20024;-61
2021/12/11 07:08:41;;;;;;;60.53;21.27;;;3.80;99.10;;;;;;4929648;29;20030;-61
2021/12/11 07:11:09;;;;;;;49.50;21.52;;;3.70;99.10;;;;;;4927259;29;20133;-61
2021/12/11 07:13:35;;;;;;;52.47;20.05;;;3.70;99.20;;;;;;4928698;29;20031;-61
2021/12/11 07:16:01;;;;;;;51.83;19.95;;;3.80;99.20;;;;;;4930322;29;20058;-61
2021/12/11 07:18:27;;;;;;;50.78;20.38;;;3.80;99.20;;;;;;4928739;29;20047;-61
2021/12/11 07:20:55;;;;;;;49.95;20.15;;;3.80;99.20;;;;;;4928068;29;20033;-61
2021/12/11 07:23:20;;;;;;;49.95;21.27;;;3.80;99.20;;;;;;4932038;29;20156;-60
2021/12/11 07:25:58;;;;;;;53.38;20.92;;;3.80;99.20;;;;;;4925650;29;20122;-61
2021/12/11 07:28:24;;;;;;;57.28;23.27;;;3.80;99.10;;;;;;4928181;29;20035;-60
2021/12/11 07:30:52;;;;;;;56.88;21.58;;;3.90;99.20;;;;;;4926798;29;20106;-61
2021/12/11 07:33:19;;;;;;;52.05;19.70;;;3.80;99.20;;;;;;4930447;29;20039;-60
2021/12/11 07:35:46;;;;;;;50.90;20.58;;;3.80;99.20;;;;;;4928809;29;20502;-61
2021/12/11 07:38:13;;;;;;;58.22;21.95;;;3.80;99.20;;;;;;4928045;29;20572;-60
2021/12/11 07:40:51;;;;;;;53.20;20.27;;;3.80;99.20;;;;;;4927759;29;20353;-61
2021/12/11 07:43:18;;;;;;;57.83;21.40;;;3.80;99.20;;;;;;4926595;29;20064;-61
2021/12/11 07:45:46;;;;;;;54.67;20.95;;;3.80;99.20;;;;;;4929479;29;20086;-61
2021/12/11 07:48:12;;;;;;;48.70;20.50;;;3.90;99.20;;;;;;4926329;29;20027;-61
2021/12/11 07:50:39;;;;;;;50.05;21.40;;;3.90;99.20;;;;;;4927284;29;20618;-62
2021/12/11 07:53:05;;;;;;;48.05;20.40;;;4.00;99.20;;;;;;4930270;29;20035;-61
2021/12/11 07:55:32;;;;;;;45.78;19.65;;;4.00;99.20;;;;;;4926863;29;20071;-60
2021/12/11 07:57:58;;;;;;;49.17;20.02;;;4.10;99.30;;;;;;4921463;29;20130;-61
2021/12/11 08:00:26;;;;;;;46.10;19.90;;;4.20;99.20;;;;;;4920857;29;20040;-61
2021/12/11 08:02:52;;;;;;;48.75;20.95;;;4.30;99.10;;;;;;4926560;29;20031;-61
2021/12/11 08:05:18;;;;;;;50.55;21.35;;;4.20;99.00;;;;;;4926563;29;20035;-61
2021/12/11 08:07:44;;;;;;;52.45;21.20;;;4.30;99.00;;;;;;4925032;29;20099;-61
2021/12/11 08:10:16;;;;;;;50.33;22.02;;;4.20;98.90;;;;;;4929583;29;20484;-61
2021/12/11 08:12:42;;;;;;;52.67;23.08;;;4.20;99.00;;;;;;4926188;29;20376;-61
2021/12/11 08:15:09;;;;;;;48.78;19.67;;;4.20;99.00;;;;;;4932944;29;20032;-61
2021/12/11 08:17:35;;;;;;;52.10;21.35;;;4.20;99.00;;;;;;4933829;29;20443;-63
2021/12/11 08:20:01;;;;;;;55.97;20.75;;;4.20;99.00;;;;;;4931561;29;20051;-62
2021/12/11 08:22:27;;;;;;;52.47;20.33;;;4.10;99.00;;;;;;4928184;29;20058;-62
2021/12/11 08:24:52;;;;;;;52.97;19.90;;;4.20;99.00;;;;;;4922983;29;20031;-63
2021/12/11 08:27:22;;;;;;;58.17;21.85;;;4.10;99.00;;;;;;4925937;29;20396;-63
2021/12/11 08:29:50;;;;;;;46.75;20.48;;;4.20;99.10;;;;;;4922558;29;20666;-63
2021/12/11 08:32:16;;;;;;;49.35;21.48;;;4.20;99.00;;;;;;4922706;29;20034;-63
2021/12/11 08:34:43;;;;;;;51.90;20.60;;;4.40;99.00;;;;;;4923740;29;20130;-63
2021/12/11 08:37:12;;;;;;;50.15;20.23;;;4.40;98.90;;;;;;4921738;29;20028;-62
2021/12/11 08:39:38;;;;;;;49.90;19.42;;;4.40;98.90;;;;;;4926899;29;20409;-62
2021/12/11 08:42:08;;;;;;;45.40;19.67;;;4.50;98.80;;;;;;4922597;29;20028;-63
2021/12/11 08:44:37;;;;;;;49.10;20.02;;;4.50;98.80;;;;;;4929136;29;20031;-62
2021/12/11 08:47:08;;;;;;;42.08;19.05;;;4.50;98.80;;;;;;4930091;29;20035;-62
2021/12/11 08:49:37;;;;;;;43.38;19.52;;;4.50;98.70;;;;;;4924839;29;20031;-62
2021/12/11 08:52:35;;;;;;;40.53;19.63;;;4.60;98.70;;;;;;4935292;29;20056;-62
2021/12/11 08:55:05;;;;;;;37.83;17.42;;;4.60;98.60;;;;;;4923052;29;20039;-62
2021/12/11 08:57:36;;;;;;;34.83;16.77;;;4.70;98.60;;;;;;4925593;28;20483;-62
2021/12/11 09:00:20;;;;;;;34.65;16.85;;;4.70;98.60;;;;;;4921581;29;20039;-62
2021/12/11 09:02:57;;;;;;;31.88;16.88;;;4.70;98.50;;;;;;4924692;29;20098;-62
2021/12/11 09:05:31;;;;;;;30.25;15.77;;;4.70;98.40;;;;;;4925042;29;20061;-62
2021/12/11 09:08:03;;;;;;;33.72;16.77;;;4.70;98.40;;;;;;4920264;29;20463;-62
2021/12/11 09:10:49;;;;;;;29.50;15.35;;;4.70;98.30;;;;;;4923556;29;20042;-62
2021/12/11 09:13:41;;;;;;;32.03;16.23;;;4.70;98.30;;;;;;4921346;29;20386;-62
2021/12/11 09:16:10;;;;;;;28.67;15.05;;;4.70;98.20;;;;;;4925867;29;20067;-62
2021/12/11 09:18:46;;;;;;;32.60;16.58;;;4.80;98.20;;;;;;4932357;29;20455;-62
2021/12/11 09:21:25;;;;;;;32.97;16.58;;;4.80;98.10;;;;;;4934057;29;20491;-62
2021/12/11 09:24:08;;;;;;;35.65;18.25;;;4.80;98.00;;;;;;4934767;29;20481;-62
2021/12/11 09:26:43;;;;;;;33.65;16.92;;;4.80;98.00;;;;;;4932538;29;20039;-62
2021/12/11 09:29:18;;;;;;;35.67;18.95;;;4.90;98.00;;;;;;4932867;29;20499;-62
2021/12/11 09:32:09;;;;;;;;;;;4.80;97.90;;;;;;4945492;28;20383;-62
2021/12/11 09:34:47;;;;;;;34.58;17.15;;;4.90;98.00;;;;;;4928225;29;20282;-62
2021/12/11 09:37:14;;;;;;;31.45;15.10;;;4.90;97.90;;;;;;4930534;29;20040;-63
2021/12/11 09:39:50;;;;;;;31.75;14.75;;;4.90;97.90;;;;;;4935226;29;20523;-62
2021/12/11 09:42:16;;;;;;;40.88;16.10;;;4.90;97.80;;;;;;4925581;29;20535;-62
2021/12/11 09:44:59;;;;;;;32.88;16.50;;;4.90;97.80;;;;;;4929436;29;20043;-62
2021/12/11 09:47:31;;;;;;;31.63;15.35;;;4.90;97.80;;;;;;4923977;29;20032;-63
2021/12/11 09:50:03;;;;;;;33.80;17.25;;;4.90;97.80;;;;;;4928355;29;20551;-63
2021/12/11 09:52:32;;;;;;;30.67;15.88;;;4.90;97.80;;;;;;4927084;29;20383;-62
2021/12/11 09:55:18;;;;;;;28.83;15.60;;;5.00;97.80;;;;;;4939862;28;20543;-62
2021/12/11 09:57:48;;;;;;;28.73;14.57;;;4.90;97.70;;;;;;4928378;29;20043;-63
2021/12/11 10:00:24;;;;;;;25.23;14.18;;;5.00;97.70;;;;;;4925046;29;20475;-63
2021/12/11 10:02:50;;;;;;;29.48;14.55;;;5.00;97.60;;;;;;4924085;29;20091;-62
2021/12/11 10:05:31;;;;;;;26.40;13.98;;;5.00;97.50;;;;;;4925131;29;20514;-63
2021/12/11 10:08:28;;;;;;;28.13;15.70;;;5.00;97.50;;;;;;4922876;29;20511;-62
2021/12/11 10:11:30;;;;;;;27.83;15.27;;;4.90;97.40;;;;;;4919676;29;20068;-62
2021/12/11 10:14:10;;;;;;;26.13;13.40;;;4.90;97.50;;;;;;4907611;29;20058;-63
2021/12/11 10:16:41;;;;;;;25.30;13.73;;;5.00;97.50;;;;;;4925065;29;20032;-64
2021/12/11 10:19:09;;;;;;;24.55;12.45;;;4.90;97.50;;;;;;4926603;29;20091;-63
2021/12/11 10:21:40;;;;;;;23.77;12.35;;;5.00;97.50;;;;;;4927287;29;20582;-64
2021/12/11 10:24:10;;;;;;;25.05;13.77;;;5.00;97.40;;;;;;4928177;29;20466;-63
2021/12/11 10:26:36;;;;;;;26.95;13.43;;;5.00;97.40;;;;;;4927293;29;20055;-63
2021/12/11 10:29:05;;;;;;;26.23;13.00;;;4.90;97.30;;;;;;4924799;29;20028;-63
2021/12/11 10:31:35;;;;;;;25.50;12.30;;;4.90;97.40;;;;;;4926978;29;20036;-63
2021/12/11 10:34:06;;;;;;;24.75;13.35;;;5.00;97.50;;;;;;4934374;29;20035;-64
2021/12/11 10:36:36;;;;;;;21.92;12.85;;;5.00;97.30;;;;;;4927582;29;20043;-64
2021/12/11 10:39:06;;;;;;;29.23;14.18;;;5.10;97.20;;;;;;4926030;29;20051;-62
2021/12/11 10:41:32;;;;;;;27.55;13.88;;;5.20;97.20;;;;;;4928856;29;20059;-63
2021/12/11 10:44:03;;;;;;;28.02;13.38;;;5.10;97.10;;;;;;4929376;29;20039;-62
2021/12/11 10:46:36;;;;;;;29.50;14.98;;;5.10;97.00;;;;;;4931785;29;20028;-63
2021/12/11 10:49:05;;;;;;;27.75;14.63;;;5.10;97.10;;;;;;4927668;29;20032;-62
2021/12/11 10:51:36;;;;;;;26.95;14.70;;;5.20;97.10;;;;;;4928645;29;20046;-62
2021/12/11 10:54:02;;;;;;;31.17;15.38;;;5.20;97.10;;;;;;4933373;29;20526;-61
2021/12/11 10:56:29;;;;;;;28.65;15.10;;;5.20;97.10;;;;;;4934374;29;20471;-62
2021/12/11 10:59:03;;;;;;;30.58;14.50;;;5.30;97.10;;;;;;4934499;29;20040;-62
2021/12/11 11:01:41;;;;;;;26.27;13.07;;;5.30;97.00;;;;;;4936450;29;20082;-63
2021/12/11 11:04:14;;;;;;;28.70;14.05;;;5.40;96.90;;;;;;4955572;28;20526;-63
2021/12/11 11:06:40;;;;;;;31.95;15.98;;;5.40;96.80;;;;;;4936930;29;20035;-63
2021/12/11 11:09:09;;;;;;;29.55;15.00;;;5.40;96.70;;;;;;4934238;29;20164;-63
2021/12/11 11:11:36;;;;;;;30.23;14.93;;;5.40;96.60;;;;;;4936799;29;20376;-63
2021/12/11 11:14:04;;;;;;;31.50;15.05;;;5.40;96.60;;;;;;4935661;29;20027;-63
2021/12/11 11:16:31;;;;;;;26.30;13.80;;;5.40;96.50;;;;;;4933209;29;20079;-62
2021/12/11 11:18:57;;;;;;;24.17;13.90;;;5.50;96.50;;;;;;4933449;29;20047;-63
2021/12/11 11:21:45;;;;;;;23.45;12.43;;;5.50;96.40;;;;;;4946110;28;20032;-63
2021/12/11 11:24:13;;;;;;;22.90;13.02;;;5.50;96.40;;;;;;4935638;29;20039;-63
2021/12/11 11:26:43;;;;;;;24.67;13.55;;;5.40;96.30;;;;;;4932791;29;20412;-63
2021/12/11 11:29:12;;;;;;;25.60;13.50;;;5.40;96.30;;;;;;4930385;29;20051;-63
2021/12/11 11:31:39;;;;;;;27.70;15.07;;;5.40;96.30;;;;;;4930177;29;20031;-63
2021/12/11 11:34:08;;;;;;;24.63;13.73;;;5.30;96.50;;;;;;4935183;29;20163;-62
2021/12/11 11:36:35;;;;;;;21.42;12.40;;;5.30;96.40;;;;;;4933224;29;20122;-63
2021/12/11 11:39:06;;;;;;;23.50;13.70;;;5.30;96.40;;;;;;4933352;29;20636;-63
2021/12/11 11:41:39;;;;;;;25.83;14.27;;;5.30;96.40;;;;;;4931414;29;20510;-62
2021/12/11 11:44:05;;;;;;;30.08;15.50;;;5.30;96.40;;;;;;4925430;29;20449;-63
2021/12/11 11:46:31;;;;;;;29.35;14.35;;;5.40;96.40;;;;;;4931770;29;20293;-63
2021/12/11 11:48:59;;;;;;;21.77;12.48;;;5.30;96.30;;;;;;4933153;28;20611;-63
2021/12/11 11:51:32;;;;;;;22.83;13.18;;;5.40;96.40;;;;;;4932809;29;20102;-63
2021/12/11 11:53:59;;;;;;;29.23;15.13;;;5.30;96.40;;;;;;4928175;29;20118;-63
2021/12/11 11:56:30;;;;;;;28.00;14.68;;;5.30;96.40;;;;;;4932654;29;20051;-63
2021/12/11 11:58:56;;;;;;;25.63;13.88;;;5.30;96.30;;;;;;4930820;29;20114;-63
2021/12/11 12:01:30;;;;;;;29.67;16.20;;;5.30;96.30;;;;;;4933843;29;20024;-63
2021/12/11 12:03:57;;;;;;;31.20;15.35;;;5.40;96.30;;;;;;4935545;29;20617;-63
2021/12/11 12:06:31;;;;;;;30.05;15.52;;;5.40;96.20;;;;;;4934244;29;20476;-63
2021/12/11 12:08:57;;;;;;;30.38;15.25;;;5.40;96.20;;;;;;4932801;29;20040;-63
2021/12/11 12:11:27;;;;;;;29.35;15.35;;;5.40;96.30;;;;;;4929148;29;20323;-62
2021/12/11 12:13:52;;;;;;;29.85;15.77;;;5.40;96.20;;;;;;4930129;29;20047;-63
2021/12/11 12:16:18;;;;;;;28.05;15.55;;;5.40;96.20;;;;;;4928088;29;20024;-63
2021/12/11 12:18:44;;;;;;;28.48;15.00;;;5.40;96.20;;;;;;4932979;29;20042;-63
2021/12/11 12:21:14;;;;;;;29.75;14.98;;;5.40;96.10;;;;;;4929557;29;20059;-63
2021/12/11 12:23:39;;;;;;;28.15;14.50;;;5.50;96.10;;;;;;4926784;28;20106;-63
2021/12/11 12:26:12;;;;;;;26.02;14.80;;;5.40;96.10;;;;;;4932021;29;20701;-62
2021/12/11 12:28:38;;;;;;;28.42;14.00;;;5.50;96.10;;;;;;4933065;29;20167;-64
2021/12/11 12:31:12;;;;;;;30.48;14.60;;;5.50;96.10;;;;;;4930273;29;20122;-63
2021/12/11 12:33:37;;;;;;;26.67;15.38;;;5.50;96.00;;;;;;4929852;29;20036;-63
2021/12/11 12:36:05;;;;;;;30.40;14.50;;;5.50;96.00;;;;;;4935534;29;20028;-63
2021/12/11 12:38:32;;;;;;;26.17;14.80;;;5.50;96.00;;;;;;4929985;29;20531;-63
2021/12/11 12:41:34;;;;;;;30.52;15.07;;;5.50;96.00;;;;;;4933327;29;20036;-62
2021/12/11 12:44:27;;;;;;;27.58;13.82;;;5.50;96.00;;;;;;4934446;29;20036;-63
2021/12/11 12:47:07;;;;;;;27.83;14.75;;;5.50;96.00;;;;;;4932840;29;20028;-63
2021/12/11 12:49:35;;;;;;;29.98;16.05;;;5.50;96.00;;;;;;4925428;29;20038;-63
2021/12/11 12:52:06;;;;;;;30.40;15.63;;;5.50;96.00;;;;;;4926476;29;20118;-64
2021/12/11 12:54:32;;;;;;;31.50;16.17;;;5.50;95.90;;;;;;4928928;29;20043;-63
2021/12/11 12:57:12;;;;;;;34.90;17.35;;;5.50;96.00;;;;;;4932906;29;20024;-62
2021/12/11 12:59:41;;;;;;;35.05;16.75;;;5.50;96.00;;;;;;4930362;29;20181;-63
2021/12/11 13:02:11;;;;;;;29.98;16.00;;;5.50;96.00;;;;;;4925996;29;20396;-62
2021/12/11 13:04:43;;;;;;;31.35;16.13;;;5.40;95.90;;;;;;4928749;29;20651;-63